Airfield :
LOGIN :

Register | Disclaimer

   EN    FR    IT 

 










Legend :    VFR   Marginal VFR   IFR   Intensive IFR   Very Intensive IFR
Visi :
Ceiling :
>= 8 km
>= 3000ft
5 to 8 km
1000 to 3000 ft
1500m to 5 km
500 to 1000 ft
800 to 1500m
200 to 500 ft
< 800m
< 200 ft
Symbols :   Thunderstorms  Fog  Heavy snow  Heavy precipitations  Wind > 20 kt
SIGMETs :     Misc.  Thunderstorms  Icing  Turbulence  Mountain Waves  Volcanic Ashes






- Airport Elevation : 39 ft
- IATA code : ANR


EBAW - Anvers / Antwerpen Deurne

CURRENT METAR :
  • 231650Z 30021G33KT 9999 FEW017 BKN048 11/07 Q1017 NOSIG

EXPIRED METARs :
  • 231620Z 29017KT 9999 FEW010 BKN016 11/09 Q1016 TEMPO 29017G27KT
  • 231550Z 29019G30KT 8000 -RA FEW009 BKN015 12/10 Q1015 NOSIG
  • 231520Z 28018G28KT 250V310 4500 RA FEW009 BKN012 12/11 Q1014 BECMG 9999 NSW BKN017
  • 231450Z 26020G36KT 230V290 6000 -RA FEW011 BKN017 13/10 Q1013 TEMPO 4000 RA BKN012
  • 231420Z 26020G35KT 230V290 9999 BKN017 13/10 Q1013 NOSIG

TAF TAF EBAW
Valid from the 23 at 15:00 until the 24 at 00:00 UTC


231410Z 2315/2324 28018G28KT 8000 -RA BKN012
PROB40
TEMPO 2315/2316 4000 RA BKN008
BECMG 2315/2317 29010KT SCT018 SCT040



MET'MAP, your aeronautical weather chart ! - Copyright ORBIFLY December 2007 - Disclaimer

ORBIFLY MET'MAP TEAM :

Programming & Development : Alexandra Zaïnal
Concept & original design : Baudouin d'Aumeries
Assistance for programming : Marc-Olivier Méhu
Technical & hardware support : Manuel Goepfert

Contact : metmap@orbifly.com




SOURCES & CREDITS :

   NOAA